createdAt,value
2017-01-29T00:00:31.872Z,99.99
2017-01-29T00:01:46.216Z,99.99
2017-01-29T00:03:00.547Z,99.99
2017-01-29T00:04:14.933Z,99.99
2017-01-29T00:05:29.294Z,99.99
2017-01-29T00:06:43.678Z,99.99
2017-01-29T00:07:57.451Z,99.99
2017-01-29T00:09:11.784Z,99.99
2017-01-29T00:10:26.129Z,99.99
2017-01-29T00:11:40.478Z,99.99
2017-01-29T00:12:54.868Z,99.99
2017-01-29T00:14:08.594Z,99.99
2017-01-29T00:15:21.654Z,99.99
2017-01-29T00:16:36.050Z,99.99
2017-01-29T00:17:50.410Z,99.99
2017-01-29T00:19:04.763Z,99.99
2017-01-29T00:20:18.513Z,99.99
2017-01-29T00:21:32.871Z,99.99
2017-01-29T00:22:47.269Z,99.99
2017-01-29T00:24:01.631Z,99.99
2017-01-29T00:25:16.072Z,99.99
2017-01-29T00:26:30.443Z,99.99
2017-01-29T00:27:44.847Z,99.99
2017-01-29T00:28:59.250Z,99.99
2017-01-29T00:30:13.660Z,99.99
2017-01-29T00:31:28.073Z,99.99
2017-01-29T00:32:41.819Z,99.99
2017-01-29T00:33:55.576Z,99.99
2017-01-29T00:35:09.314Z,99.99
2017-01-29T00:36:23.049Z,99.99
2017-01-29T00:37:37.403Z,99.99
2017-01-29T00:38:51.132Z,99.99
2017-01-29T00:40:05.497Z,99.99
2017-01-29T00:41:19.248Z,99.99
2017-01-29T00:42:33.576Z,99.99
2017-01-29T00:43:47.976Z,99.99
2017-01-29T00:45:02.351Z,99.99
2017-01-29T00:46:16.738Z,99.99
2017-01-29T00:47:31.082Z,99.99
2017-01-29T00:48:44.987Z,99.99
2017-01-29T00:49:58.703Z,99.99
2017-01-29T00:51:12.414Z,99.99
2017-01-29T00:52:26.132Z,99.99
2017-01-29T00:53:40.541Z,99.99
2017-01-29T00:54:54.968Z,99.99
2017-01-29T00:56:08.720Z,99.99
2017-01-29T00:57:23.119Z,99.99
2017-01-29T00:58:36.854Z,99.99
2017-01-29T00:59:51.224Z,99.99
2017-01-29T01:01:04.957Z,99.99
2017-01-29T01:02:18.676Z,99.99
2017-01-29T01:03:33.056Z,99.99
2017-01-29T01:04:47.430Z,99.99
2017-01-29T01:06:01.758Z,99.99
2017-01-29T01:07:15.450Z,99.99
2017-01-29T01:08:29.827Z,99.99
2017-01-29T01:09:44.234Z,99.99
2017-01-29T01:10:58.608Z,99.99
2017-01-29T01:12:12.332Z,99.99
2017-01-29T01:13:26.081Z,99.99
2017-01-29T01:14:40.466Z,99.99
2017-01-29T01:15:54.903Z,99.99
2017-01-29T01:17:08.618Z,99.99
2017-01-29T01:18:22.963Z,99.99
2017-01-29T01:19:36.687Z,99.99
2017-01-29T01:20:51.254Z,99.99
2017-01-29T01:22:05.634Z,99.99
2017-01-29T01:23:20.031Z,99.99
2017-01-29T01:24:34.431Z,99.99
2017-01-29T01:25:48.788Z,99.99
2017-01-29T01:27:03.135Z,99.99
2017-01-29T01:28:17.521Z,99.99
2017-01-29T01:29:31.930Z,99.99
2017-01-29T01:30:46.351Z,99.99
2017-01-29T01:32:00.738Z,99.99
2017-01-29T01:33:15.110Z,99.99
2017-01-29T01:34:29.459Z,99.99
2017-01-29T01:35:43.832Z,99.99
2017-01-29T01:36:58.216Z,99.99
2017-01-29T01:38:12.570Z,99.99
2017-01-29T01:39:26.296Z,99.99
2017-01-29T01:40:40.852Z,99.99
2017-01-29T01:41:55.191Z,99.99
2017-01-29T01:43:08.928Z,99.99
2017-01-29T01:44:23.298Z,99.99
2017-01-29T01:45:36.369Z,99.99
2017-01-29T01:46:50.695Z,99.99
2017-01-29T01:48:05.072Z,99.99
2017-01-29T01:49:19.458Z,99.99
2017-01-29T01:50:33.875Z,99.99
2017-01-29T01:51:48.236Z,99.99
2017-01-29T01:53:02.625Z,99.99
2017-01-29T01:54:16.362Z,99.99
2017-01-29T01:55:30.702Z,99.99
2017-01-29T01:56:45.069Z,99.99
2017-01-29T01:57:58.157Z,99.99
2017-01-29T01:59:12.546Z,99.99
2017-01-29T02:00:26.321Z,99.99
2017-01-29T02:01:40.656Z,99.99
2017-01-29T02:02:55.054Z,99.99
2017-01-29T02:04:09.439Z,99.99
2017-01-29T02:05:23.833Z,99.99
2017-01-29T02:06:37.623Z,99.99
2017-01-29T02:07:51.961Z,99.99
2017-01-29T02:09:06.356Z,99.99
2017-01-29T02:10:20.097Z,99.99
2017-01-29T02:11:34.483Z,99.99
2017-01-29T02:12:48.871Z,99.99
2017-01-29T02:14:03.216Z,99.99
2017-01-29T02:15:17.594Z,99.99
2017-01-29T02:16:32.184Z,99.99
2017-01-29T02:17:46.549Z,99.99
2017-01-29T02:19:00.312Z,99.99
2017-01-29T02:20:14.687Z,99.99
2017-01-29T02:21:29.035Z,99.99
2017-01-29T02:22:43.410Z,99.99
2017-01-29T02:23:57.824Z,99.99
2017-01-29T02:25:12.221Z,99.99
2017-01-29T02:26:26.599Z,99.99
2017-01-29T02:27:40.993Z,99.99
2017-01-29T02:28:54.725Z,99.99
2017-01-29T02:30:08.466Z,99.99
2017-01-29T02:31:22.815Z,99.99
2017-01-29T02:32:37.170Z,99.99
2017-01-29T02:33:51.558Z,99.99
2017-01-29T02:35:05.960Z,99.99
2017-01-29T02:36:20.302Z,99.99
2017-01-29T02:37:34.666Z,99.99
2017-01-29T02:38:49.047Z,99.99
2017-01-29T02:40:03.413Z,99.99
2017-01-29T02:41:16.518Z,99.99
2017-01-29T02:42:31.068Z,99.99
2017-01-29T02:43:45.442Z,99.99
2017-01-29T02:44:59.167Z,99.99
2017-01-29T02:46:12.910Z,99.99
2017-01-29T02:47:27.299Z,99.99
2017-01-29T02:48:41.674Z,99.99
2017-01-29T02:49:55.407Z,99.99
2017-01-29T02:51:09.765Z,99.99
2017-01-29T02:52:24.138Z,99.99
2017-01-29T02:53:38.509Z,99.99
2017-01-29T02:54:52.224Z,99.99
2017-01-29T02:56:06.591Z,99.99
2017-01-29T02:57:20.960Z,99.99
2017-01-29T02:58:35.329Z,99.99
2017-01-29T02:59:49.710Z,99.99
2017-01-29T03:01:04.126Z,99.99
2017-01-29T03:02:17.904Z,99.99
2017-01-29T03:03:32.284Z,99.99
2017-01-29T03:04:46.642Z,99.99
2017-01-29T03:05:59.719Z,99.99
2017-01-29T03:07:13.439Z,99.99
2017-01-29T03:08:27.823Z,99.99
2017-01-29T03:09:42.168Z,99.99
2017-01-29T03:10:56.574Z,99.99
2017-01-29T03:12:10.981Z,99.99
2017-01-29T03:13:25.367Z,99.99
2017-01-29T03:14:39.714Z,99.99
2017-01-29T03:15:54.083Z,99.99
2017-01-29T03:17:08.493Z,99.99
2017-01-29T03:18:22.841Z,99.99
2017-01-29T03:19:37.228Z,99.99
2017-01-29T03:20:51.581Z,99.99
2017-01-29T03:22:05.937Z,99.99
2017-01-29T03:23:19.039Z,99.99
2017-01-29T03:24:33.400Z,99.99
2017-01-29T03:25:47.768Z,99.99
2017-01-29T03:27:01.525Z,99.99
2017-01-29T03:28:14.608Z,99.99
2017-01-29T03:29:30.967Z,99.99
2017-01-29T03:30:45.572Z,99.99
2017-01-29T03:31:59.945Z,99.99
2017-01-29T03:33:14.328Z,99.99
2017-01-29T03:34:28.703Z,99.99
2017-01-29T03:35:43.068Z,99.99
2017-01-29T03:36:57.430Z,99.99
2017-01-29T03:38:11.161Z,99.99
2017-01-29T03:39:25.571Z,99.99
2017-01-29T03:40:39.942Z,99.99
2017-01-29T03:41:54.279Z,99.99
2017-01-29T03:43:08.631Z,99.99
2017-01-29T03:44:22.979Z,99.99
2017-01-29T03:45:37.403Z,99.99
2017-01-29T03:46:51.756Z,99.99
2017-01-29T03:48:05.463Z,99.99
2017-01-29T03:49:19.148Z,99.99
2017-01-29T03:50:33.492Z,99.99
2017-01-29T03:51:47.890Z,99.99
2017-01-29T03:53:02.280Z,99.99
2017-01-29T03:54:16.648Z,99.99
2017-01-29T03:55:30.983Z,99.99
2017-01-29T03:56:45.352Z,99.99
2017-01-29T03:57:59.124Z,99.99
2017-01-29T03:59:13.501Z,99.99
2017-01-29T04:00:27.934Z,99.99
2017-01-29T04:01:42.265Z,99.99
2017-01-29T04:02:56.642Z,99.99
2017-01-29T04:04:10.358Z,99.99
2017-01-29T04:05:24.721Z,99.99
2017-01-29T04:06:39.053Z,99.99
2017-01-29T04:07:53.430Z,99.99
2017-01-29T04:09:07.773Z,99.99
2017-01-29T04:10:22.150Z,99.99
2017-01-29T04:11:36.518Z,99.99
2017-01-29T04:12:50.890Z,99.99
2017-01-29T04:14:04.602Z,99.99
2017-01-29T04:15:17.677Z,99.99
2017-01-29T04:16:32.068Z,99.99
2017-01-29T04:17:46.470Z,99.99
2017-01-29T04:19:00.206Z,99.99
2017-01-29T04:20:14.558Z,99.99
2017-01-29T04:21:28.925Z,99.99
2017-01-29T04:22:42.640Z,99.99
2017-01-29T04:23:57.013Z,99.99
2017-01-29T04:25:10.733Z,99.99
2017-01-29T04:26:24.465Z,99.99
2017-01-29T04:27:38.860Z,99.99
2017-01-29T04:28:53.238Z,99.99
2017-01-29T04:30:07.651Z,99.99
2017-01-29T04:31:22.076Z,99.99
2017-01-29T04:32:36.461Z,99.99
2017-01-29T04:33:50.848Z,99.99
2017-01-29T04:35:05.200Z,99.99
2017-01-29T04:36:19.550Z,99.99
2017-01-29T04:37:33.939Z,99.99
2017-01-29T04:38:47.687Z,99.99
2017-01-29T04:40:02.035Z,99.99
2017-01-29T04:41:16.401Z,99.99
2017-01-29T04:42:30.784Z,99.99
2017-01-29T04:43:45.133Z,99.99
2017-01-29T04:44:59.480Z,99.99
2017-01-29T04:46:13.814Z,99.99
2017-01-29T04:47:28.176Z,99.99
2017-01-29T04:48:42.573Z,99.99
2017-01-29T04:49:56.975Z,99.99
2017-01-29T04:51:10.738Z,99.99
2017-01-29T04:52:25.089Z,99.99
2017-01-29T04:53:39.443Z,99.99
2017-01-29T04:54:53.827Z,99.99
2017-01-29T04:56:07.572Z,99.99
2017-01-29T04:57:21.998Z,99.99
2017-01-29T04:58:36.369Z,99.99
2017-01-29T04:59:50.723Z,99.99
2017-01-29T05:01:04.461Z,99.99
2017-01-29T05:02:18.823Z,99.99
2017-01-29T05:03:33.198Z,99.99
2017-01-29T05:04:47.571Z,99.99
2017-01-29T05:06:01.911Z,99.99
2017-01-29T05:07:15.006Z,99.99
2017-01-29T05:08:29.396Z,99.99
2017-01-29T05:09:43.728Z,99.99
2017-01-29T05:10:58.106Z,99.99
2017-01-29T05:12:12.483Z,99.99
2017-01-29T05:13:26.202Z,99.99
2017-01-29T05:14:40.539Z,99.99
2017-01-29T05:15:54.925Z,99.99
2017-01-29T05:17:08.653Z,99.99
2017-01-29T05:18:23.043Z,99.99
2017-01-29T05:19:37.402Z,99.99
2017-01-29T05:20:51.805Z,99.99
2017-01-29T05:22:06.155Z,99.99
2017-01-29T05:23:19.269Z,99.99
2017-01-29T05:24:33.645Z,99.99
2017-01-29T05:25:48.029Z,99.99
2017-01-29T05:27:02.436Z,99.99
2017-01-29T05:28:16.830Z,99.99
2017-01-29T05:29:31.204Z,99.99
2017-01-29T05:30:45.587Z,99.99
2017-01-29T05:31:59.999Z,99.99
2017-01-29T05:33:13.804Z,99.99
2017-01-29T05:34:28.182Z,99.99
2017-01-29T05:35:42.541Z,99.99
2017-01-29T05:36:56.949Z,99.99
2017-01-29T05:38:10.697Z,99.99
2017-01-29T05:39:25.041Z,99.99
2017-01-29T05:40:39.417Z,99.99
2017-01-29T05:41:53.113Z,99.99
2017-01-29T05:43:07.460Z,99.99
2017-01-29T05:44:21.855Z,99.99
2017-01-29T05:45:36.217Z,99.99
2017-01-29T05:46:50.567Z,99.99
2017-01-29T05:48:04.942Z,99.99
2017-01-29T05:49:19.335Z,99.99
2017-01-29T05:50:33.701Z,99.99
2017-01-29T05:51:48.109Z,99.99
2017-01-29T05:53:02.457Z,99.99
2017-01-29T05:54:16.197Z,99.99
2017-01-29T05:55:30.563Z,99.99
2017-01-29T05:56:44.927Z,99.99
2017-01-29T05:57:59.270Z,99.99
2017-01-29T05:59:12.989Z,99.99
2017-01-29T06:00:27.329Z,99.99
2017-01-29T06:01:41.705Z,99.99
2017-01-29T06:02:56.067Z,99.99
2017-01-29T06:04:09.818Z,99.99
2017-01-29T06:05:24.189Z,99.99
2017-01-29T06:06:38.565Z,99.99
2017-01-29T06:07:52.940Z,99.99
2017-01-29T06:09:07.308Z,99.99
2017-01-29T06:10:21.689Z,99.99
2017-01-29T06:11:35.440Z,99.99
2017-01-29T06:12:49.776Z,99.99
2017-01-29T06:14:04.154Z,99.99
2017-01-29T06:15:18.542Z,99.99
2017-01-29T06:16:32.931Z,99.99
2017-01-29T06:17:47.296Z,99.99
2017-01-29T06:19:01.692Z,99.99
2017-01-29T06:20:15.464Z,99.99
2017-01-29T06:21:29.824Z,99.99
2017-01-29T06:22:44.226Z,99.99
2017-01-29T06:23:58.611Z,99.99
2017-01-29T06:25:12.351Z,99.99
2017-01-29T06:26:25.419Z,99.99
2017-01-29T06:27:39.824Z,99.99
2017-01-29T06:28:53.584Z,99.99
2017-01-29T06:30:07.960Z,99.99
2017-01-29T06:31:22.344Z,99.99
2017-01-29T06:32:36.705Z,99.99
2017-01-29T06:33:51.041Z,99.99
2017-01-29T06:35:05.399Z,99.99
2017-01-29T06:36:19.133Z,99.99
2017-01-29T06:37:33.479Z,99.99
2017-01-29T06:38:47.830Z,99.99
2017-01-29T06:40:02.227Z,99.99
2017-01-29T06:41:15.983Z,99.99
2017-01-29T06:42:29.728Z,99.99
2017-01-29T06:43:44.116Z,99.99
2017-01-29T06:44:57.847Z,99.99
2017-01-29T06:46:12.203Z,99.99
2017-01-29T06:47:25.975Z,99.99
2017-01-29T06:48:40.379Z,99.99
2017-01-29T06:49:54.730Z,99.99
2017-01-29T06:51:09.131Z,99.99
2017-01-29T06:52:23.503Z,99.99
2017-01-29T06:53:37.233Z,99.99
2017-01-29T06:54:51.657Z,99.99
2017-01-29T06:56:06.063Z,99.99
2017-01-29T06:57:19.146Z,99.99
2017-01-29T06:58:33.500Z,99.99
2017-01-29T06:59:47.225Z,99.99
2017-01-29T07:01:01.580Z,99.99
2017-01-29T07:02:15.956Z,99.99
2017-01-29T07:03:30.344Z,99.99
2017-01-29T07:04:44.706Z,99.99
2017-01-29T07:05:59.051Z,99.99
2017-01-29T07:07:12.749Z,99.99
2017-01-29T07:08:26.455Z,99.99
2017-01-29T07:09:40.842Z,99.99
2017-01-29T07:10:55.223Z,99.99
2017-01-29T07:12:09.661Z,99.99
2017-01-29T07:13:24.024Z,99.99
2017-01-29T07:14:38.384Z,99.99
2017-01-29T07:15:52.736Z,99.99
2017-01-29T07:17:07.124Z,99.99
2017-01-29T07:18:20.867Z,99.99
2017-01-29T07:19:35.221Z,99.99
2017-01-29T07:20:49.566Z,99.99
2017-01-29T07:22:03.934Z,99.99
2017-01-29T07:23:18.379Z,99.99
2017-01-29T07:24:32.757Z,99.99
2017-01-29T07:25:47.111Z,99.99
2017-01-29T07:27:01.471Z,99.99
2017-01-29T07:28:15.844Z,99.99
2017-01-29T07:29:30.188Z,99.99
2017-01-29T07:30:44.504Z,99.99
2017-01-29T07:31:58.210Z,99.99
2017-01-29T07:33:11.938Z,99.99
2017-01-29T07:34:26.278Z,99.99
2017-01-29T07:35:40.622Z,99.99
2017-01-29T07:36:55.015Z,99.99
2017-01-29T07:38:08.736Z,99.99
2017-01-29T07:39:22.484Z,99.99
2017-01-29T07:40:36.885Z,99.99
2017-01-29T07:41:51.260Z,99.99
2017-01-29T07:43:05.632Z,99.99
2017-01-29T07:44:20.022Z,99.99
2017-01-29T07:45:33.760Z,99.99
2017-01-29T07:46:48.136Z,99.99
2017-01-29T07:48:01.828Z,99.99
2017-01-29T07:49:14.903Z,99.99
2017-01-29T07:50:29.247Z,99.99
2017-01-29T07:51:43.612Z,99.99
2017-01-29T07:52:57.944Z,99.99
2017-01-29T07:54:11.655Z,99.99
2017-01-29T07:55:25.364Z,99.99
2017-01-29T07:56:39.765Z,99.99
2017-01-29T07:57:54.162Z,99.99
2017-01-29T07:59:08.536Z,99.99
2017-01-29T08:00:22.908Z,99.99
2017-01-29T08:01:37.291Z,99.99
2017-01-29T08:02:51.645Z,99.99
2017-01-29T08:04:06.015Z,99.99
2017-01-29T08:05:20.342Z,99.99
2017-01-29T08:06:34.726Z,99.99
2017-01-29T08:07:49.095Z,99.99
2017-01-29T08:09:03.450Z,99.99
2017-01-29T08:10:16.528Z,99.99
2017-01-29T08:11:30.912Z,99.99
2017-01-29T08:12:45.301Z,99.99
2017-01-29T08:13:59.643Z,99.99
2017-01-29T08:15:14.072Z,99.99
2017-01-29T08:16:28.430Z,99.99
2017-01-29T08:17:42.169Z,99.99
2017-01-29T08:18:56.543Z,99.99
2017-01-29T08:20:10.261Z,99.99
2017-01-29T08:21:24.647Z,99.99
2017-01-29T08:22:39.024Z,99.99
2017-01-29T08:23:53.409Z,99.99
2017-01-29T08:25:07.791Z,99.99
2017-01-29T08:26:22.172Z,99.99
2017-01-29T08:27:36.531Z,99.99
2017-01-29T08:28:50.926Z,99.99
2017-01-29T08:30:05.265Z,99.99
2017-01-29T08:31:19.635Z,99.99
2017-01-29T08:32:34.003Z,99.99
2017-01-29T08:33:48.373Z,99.99
2017-01-29T08:35:02.114Z,99.99
2017-01-29T08:36:15.174Z,99.99
2017-01-29T08:37:28.903Z,99.99
2017-01-29T08:38:43.258Z,99.99
2017-01-29T08:39:56.941Z,99.99
2017-01-29T08:41:10.694Z,99.99
2017-01-29T08:42:25.033Z,99.99
2017-01-29T08:43:39.422Z,99.99
2017-01-29T08:44:53.744Z,99.99
2017-01-29T08:46:07.529Z,99.99
2017-01-29T08:47:21.920Z,99.99
2017-01-29T08:48:36.351Z,99.99
2017-01-29T08:49:50.756Z,99.99
2017-01-29T08:51:05.136Z,99.99
2017-01-29T08:52:19.557Z,99.99
2017-01-29T08:53:33.950Z,99.99
2017-01-29T08:54:47.694Z,99.99
2017-01-29T08:56:02.081Z,99.99
2017-01-29T08:57:15.823Z,99.99
2017-01-29T08:58:30.196Z,99.99
2017-01-29T08:59:44.575Z,99.99
2017-01-29T09:00:58.931Z,99.99
2017-01-29T09:02:13.270Z,99.99
2017-01-29T09:03:26.973Z,99.99
2017-01-29T09:04:41.342Z,99.99
2017-01-29T09:05:55.723Z,99.99
2017-01-29T09:07:10.107Z,99.99
2017-01-29T09:08:23.816Z,99.99
2017-01-29T09:09:37.542Z,99.99
2017-01-29T09:10:51.296Z,99.99
2017-01-29T09:12:05.647Z,99.99
2017-01-29T09:13:19.553Z,99.99
2017-01-29T09:14:33.992Z,99.99
2017-01-29T09:15:48.375Z,99.99
2017-01-29T09:17:02.761Z,99.99
2017-01-29T09:18:17.105Z,99.99
2017-01-29T09:19:31.443Z,99.99
2017-01-29T09:20:45.164Z,99.99
2017-01-29T09:21:59.519Z,99.99
2017-01-29T09:23:13.884Z,99.99
2017-01-29T09:24:27.645Z,99.99
2017-01-29T09:25:41.324Z,99.99
2017-01-29T09:26:55.693Z,99.99
2017-01-29T09:28:10.050Z,99.99
2017-01-29T09:29:24.404Z,99.99
2017-01-29T09:30:38.761Z,99.99
2017-01-29T09:31:53.147Z,99.99
2017-01-29T09:33:06.896Z,99.99
2017-01-29T09:34:21.248Z,99.99
2017-01-29T09:35:35.632Z,99.99
2017-01-29T09:36:49.992Z,99.21
2017-01-29T09:38:03.734Z,98.54
2017-01-29T09:39:18.092Z,98.44
2017-01-29T09:40:32.492Z,97.09
2017-01-29T09:41:46.871Z,97.14
2017-01-29T09:43:01.242Z,95.88
2017-01-29T09:44:14.991Z,95.68
2017-01-29T09:45:29.337Z,95.88
2017-01-29T09:46:43.743Z,98.05
2017-01-29T09:47:58.129Z,99.21
2017-01-29T09:49:10.558Z,99.02
2017-01-29T09:50:24.966Z,99.99
2017-01-29T09:51:39.326Z,99.99
2017-01-29T09:52:53.711Z,99.99
2017-01-29T09:54:08.110Z,99.99
2017-01-29T09:55:22.493Z,99.99
2017-01-29T09:56:36.859Z,99.99
2017-01-29T09:57:51.297Z,99.65
2017-01-29T09:59:05.684Z,98.88
2017-01-29T10:00:20.063Z,98.88
2017-01-29T10:01:34.462Z,98.49
2017-01-29T10:02:48.832Z,99.07
2017-01-29T10:04:02.638Z,98.15
2017-01-29T10:05:16.991Z,99.16
2017-01-29T10:06:31.350Z,99.99
2017-01-29T10:07:45.709Z,99.99
2017-01-29T10:09:00.080Z,99.99
2017-01-29T10:10:14.447Z,99.88
2017-01-29T10:11:28.849Z,99.99
2017-01-29T10:12:42.584Z,99.74
2017-01-29T10:13:56.970Z,99.94
2017-01-29T10:15:10.671Z,98.88
2017-01-29T10:16:24.406Z,99.74
2017-01-29T10:17:38.765Z,99.99
2017-01-29T10:18:53.115Z,99.99
2017-01-29T10:20:06.871Z,99.99
2017-01-29T10:21:20.589Z,99.99
2017-01-29T10:22:34.947Z,99.99
2017-01-29T10:23:49.319Z,99.99
2017-01-29T10:25:03.703Z,99.99
2017-01-29T10:26:18.073Z,99.99
2017-01-29T10:27:32.451Z,99.99
2017-01-29T10:28:46.191Z,99.99
2017-01-29T10:30:00.561Z,99.99
2017-01-29T10:31:14.914Z,99.99
2017-01-29T10:32:29.306Z,99.99
2017-01-29T10:33:43.635Z,99.99
2017-01-29T10:34:58.022Z,99.99
2017-01-29T10:36:11.738Z,99.99
2017-01-29T10:37:25.469Z,99.65
2017-01-29T10:38:39.828Z,98.83
2017-01-29T10:39:54.182Z,97.47
2017-01-29T10:41:08.562Z,95.68
2017-01-29T10:42:22.879Z,95.49
2017-01-29T10:43:36.596Z,94.82
2017-01-29T10:44:50.309Z,94.82
2017-01-29T10:46:04.702Z,93.75
2017-01-29T10:47:17.774Z,92.16
2017-01-29T10:48:32.135Z,88.37
2017-01-29T10:49:46.527Z,84.58
2017-01-29T10:51:00.920Z,81.47
2017-01-29T10:52:14.683Z,78.97
2017-01-29T10:53:29.083Z,78.03
2017-01-29T10:54:42.801Z,75.74
2017-01-29T10:55:57.176Z,74.86
2017-01-29T10:57:11.573Z,75.93
2017-01-29T10:58:26.162Z,78.09
2017-01-29T10:59:40.537Z,78.77
2017-01-29T11:00:54.281Z,76.73
2017-01-29T11:02:08.662Z,78.19
2017-01-29T11:03:23.022Z,77.57
2017-01-29T11:04:36.755Z,77.67
2017-01-29T11:05:51.149Z,76.6
2017-01-29T11:07:05.468Z,75.37
2017-01-29T11:08:19.861Z,74.15
2017-01-29T11:09:34.244Z,72.66
2017-01-29T11:10:48.583Z,71.11
2017-01-29T11:12:02.963Z,71.69
2017-01-29T11:13:16.689Z,71.98
2017-01-29T11:14:31.081Z,71.94
2017-01-29T11:15:45.450Z,72.37
2017-01-29T11:16:59.824Z,69.29
2017-01-29T11:18:14.251Z,67.12
2017-01-29T11:19:28.624Z,66.44
2017-01-29T11:20:43.034Z,65.33
2017-01-29T11:21:57.411Z,66.5
2017-01-29T11:23:11.119Z,66.17
2017-01-29T11:24:25.501Z,68.16
2017-01-29T11:25:39.242Z,68.06
2017-01-29T11:26:52.974Z,69.36
2017-01-29T11:28:07.401Z,70.68
2017-01-29T11:29:21.247Z,71.33
2017-01-29T11:30:35.612Z,71.62
2017-01-29T11:31:49.968Z,73.05
2017-01-29T11:33:04.375Z,73.02
2017-01-29T11:34:18.757Z,74.24
2017-01-29T11:35:33.146Z,74.3
2017-01-29T11:36:47.517Z,75.47
2017-01-29T11:38:01.901Z,76.44
2017-01-29T11:39:16.272Z,77.37
2017-01-29T11:40:30.651Z,78.02
2017-01-29T11:41:44.992Z,78.11
2017-01-29T11:42:59.380Z,78.4
2017-01-29T11:44:13.153Z,77.53
2017-01-29T11:45:27.555Z,76.79
2017-01-29T11:46:41.958Z,78.02
2017-01-29T11:47:56.348Z,79.08
2017-01-29T11:49:10.065Z,79.57
2017-01-29T11:50:24.406Z,78.69
2017-01-29T11:51:38.155Z,79.43
2017-01-29T11:52:52.551Z,80.85
2017-01-29T11:54:06.914Z,83.03
2017-01-29T11:55:19.984Z,83.03
2017-01-29T11:56:34.733Z,83.58
2017-01-29T11:57:49.073Z,83.67
2017-01-29T11:59:03.446Z,83.67
2017-01-29T12:00:17.795Z,81.68
2017-01-29T12:01:32.184Z,80.9
2017-01-29T12:02:46.579Z,77.39
2017-01-29T12:04:00.951Z,77.62
2017-01-29T12:05:14.659Z,76.69
2017-01-29T12:06:28.404Z,77.92
2017-01-29T12:07:42.748Z,79.43
2017-01-29T12:08:57.130Z,80.75
2017-01-29T12:10:10.854Z,81.91
2017-01-29T12:11:25.292Z,82.17
2017-01-29T12:12:39.695Z,82.94
2017-01-29T12:13:53.415Z,81.77
2017-01-29T12:15:07.799Z,82.65
2017-01-29T12:16:22.177Z,81.33
2017-01-29T12:17:36.606Z,80.36
2017-01-29T12:18:50.368Z,80.21
2017-01-29T12:20:04.741Z,78.94
2017-01-29T12:21:18.455Z,77.29
2017-01-29T12:22:32.820Z,78.27
2017-01-29T12:23:46.552Z,77.14
2017-01-29T12:25:00.914Z,75.34
2017-01-29T12:26:14.657Z,76.27
2017-01-29T12:27:29.023Z,75.59
2017-01-29T12:28:42.729Z,76.46
2017-01-29T12:29:57.122Z,77.24
2017-01-29T12:31:11.497Z,77.72
2017-01-29T12:32:25.881Z,76.85
2017-01-29T12:34:04.218Z,76.17
2017-01-29T12:35:18.572Z,74.65
2017-01-29T12:36:32.991Z,72.94
2017-01-29T12:37:47.380Z,71.03
2017-01-29T12:39:01.729Z,70.39
2017-01-29T12:40:16.096Z,68.12
2017-01-29T12:41:30.509Z,70.56
2017-01-29T12:42:43.645Z,69.2
2017-01-29T12:43:57.405Z,67.15
2017-01-29T12:45:11.785Z,66.24
2017-01-29T12:46:26.133Z,66.14
2017-01-29T12:47:40.526Z,65.56
2017-01-29T12:48:54.895Z,65.98
2017-01-29T12:50:08.632Z,65.5
2017-01-29T12:51:22.999Z,65.88
2017-01-29T12:52:37.398Z,66.89
2017-01-29T12:53:51.159Z,66.99
2017-01-29T12:55:05.527Z,66.89
2017-01-29T12:56:19.272Z,66.11
2017-01-29T12:57:33.661Z,63.93
2017-01-29T12:58:48.062Z,63.77
2017-01-29T13:00:02.535Z,63.28
2017-01-29T13:01:16.345Z,64
2017-01-29T13:02:30.713Z,65.82
2017-01-29T13:03:45.091Z,65.11
2017-01-29T13:04:58.862Z,63.58
2017-01-29T13:06:13.224Z,61.37
2017-01-29T13:07:27.784Z,61.5
2017-01-29T13:08:42.142Z,59.67
2017-01-29T13:09:55.919Z,59.05
2017-01-29T13:11:09.678Z,57.15
2017-01-29T13:12:24.043Z,55.81
2017-01-29T13:13:38.415Z,57.48
2017-01-29T13:14:52.830Z,56.6
2017-01-29T13:16:07.205Z,56.2
2017-01-29T13:17:21.580Z,55.94
2017-01-29T13:18:36.015Z,54.99
2017-01-29T13:19:50.438Z,54.89
2017-01-29T13:21:04.870Z,53.52
2017-01-29T13:22:19.242Z,53.35
2017-01-29T13:23:33.611Z,52.47
2017-01-29T13:24:47.331Z,51.51
2017-01-29T13:26:01.683Z,53.96
2017-01-29T13:27:15.423Z,55.57
2017-01-29T13:28:29.820Z,57.67
2017-01-29T13:29:42.933Z,59.28
2017-01-29T13:30:57.310Z,57.49
2017-01-29T13:32:11.049Z,58.47
2017-01-29T13:33:25.471Z,56.15
2017-01-29T13:34:39.852Z,55.2
2017-01-29T13:35:54.240Z,53.17
2017-01-29T13:37:08.603Z,50.59
2017-01-29T13:38:22.319Z,51.27
2017-01-29T13:39:36.707Z,51.46
2017-01-29T13:40:51.056Z,49.77
2017-01-29T13:42:05.447Z,51.03
2017-01-29T13:43:19.817Z,51.51
2017-01-29T13:44:34.181Z,51.32
2017-01-29T13:45:48.567Z,51.22
2017-01-29T13:47:02.943Z,51.51
2017-01-29T13:48:17.352Z,49.99
2017-01-29T13:49:31.736Z,50.9
2017-01-29T13:50:44.861Z,49.63
2017-01-29T13:51:59.253Z,51.73
2017-01-29T13:53:13.634Z,52.29
2017-01-29T13:54:27.999Z,50.83
2017-01-29T13:55:42.379Z,52.29
2017-01-29T13:56:56.790Z,54.07
2017-01-29T13:58:10.510Z,53.66
2017-01-29T13:59:24.894Z,52.68
2017-01-29T14:00:39.260Z,51.63
2017-01-29T14:01:53.011Z,50.02
2017-01-29T14:03:07.360Z,50.07
2017-01-29T14:04:21.092Z,49.48
2017-01-29T14:05:35.495Z,51.71
2017-01-29T14:06:49.907Z,51.39
2017-01-29T14:08:04.307Z,52.69
2017-01-29T14:09:18.073Z,49.07
2017-01-29T14:10:32.454Z,48.72
2017-01-29T14:11:46.210Z,47.97
2017-01-29T14:13:00.605Z,47.87
2017-01-29T14:14:15.008Z,46.11
2017-01-29T14:15:29.582Z,45.44
2017-01-29T14:16:43.983Z,44.68
2017-01-29T14:17:58.356Z,44.13
2017-01-29T14:19:12.117Z,43.96
2017-01-29T14:20:25.861Z,42.41
2017-01-29T14:21:40.243Z,43.88
2017-01-29T14:22:54.641Z,44.26
2017-01-29T14:24:09.069Z,43.82
2017-01-29T14:25:22.826Z,43.62
2017-01-29T14:26:37.186Z,43.43
2017-01-29T14:27:51.586Z,46.25
2017-01-29T14:29:05.997Z,45.42
2017-01-29T14:30:19.737Z,47.4
2017-01-29T14:31:34.153Z,47.97
2017-01-29T14:32:47.879Z,47.82
2017-01-29T14:34:01.630Z,48.58
2017-01-29T14:35:16.048Z,48.36
2017-01-29T14:36:29.778Z,48.48
2017-01-29T14:37:44.143Z,45.37
2017-01-29T14:38:57.882Z,44.34
2017-01-29T14:40:11.622Z,44.05
2017-01-29T15:58:36.047Z,38.82
2017-01-29T15:59:50.468Z,35.66
2017-01-29T16:01:04.886Z,35.49
2017-01-29T16:08:59.044Z,36.21
2017-01-29T16:10:13.457Z,37.52
2017-01-29T16:11:27.225Z,37.71
2017-01-29T16:12:41.593Z,39.27
2017-01-29T16:13:56.032Z,39.45
2017-01-29T16:15:10.407Z,40.21
2017-01-29T16:16:24.832Z,40.29
2017-01-29T16:17:39.210Z,40.29
2017-01-29T16:18:52.934Z,39.33
2017-01-29T16:20:06.652Z,37.41
2017-01-29T16:21:20.400Z,34.74
2017-01-29T16:22:34.823Z,32.54
2017-01-29T16:23:49.222Z,28.26
2017-01-29T16:25:02.959Z,27.89
2017-01-29T16:26:17.339Z,27.62
2017-01-29T16:27:31.732Z,26.76
2017-01-29T16:28:46.117Z,25.78
2017-01-29T16:30:00.488Z,26.26
2017-01-29T16:31:14.228Z,25.28
2017-01-29T16:32:28.608Z,25.01
2017-01-29T16:33:43.048Z,25.4
2017-01-29T16:34:57.443Z,25.98
2017-01-29T16:36:11.867Z,25.89
2017-01-29T16:37:26.264Z,26.09
2017-01-29T16:38:40.659Z,28.23
2017-01-29T16:39:54.377Z,29.72
2017-01-29T16:41:08.723Z,30.56
2017-01-29T16:42:23.097Z,30.85
2017-01-29T16:43:37.455Z,30.85
2017-01-29T16:44:51.201Z,31.74
2017-01-29T16:46:04.965Z,30
2017-01-29T16:47:19.431Z,27.48
2017-01-29T16:48:33.820Z,27.68
2017-01-29T16:49:48.262Z,27.87
2017-01-29T16:51:02.692Z,25.93
2017-01-29T16:52:16.435Z,24.99
2017-01-29T16:53:30.831Z,24.32
2017-01-29T16:54:45.246Z,23.26
2017-01-29T16:55:59.658Z,24.65
2017-01-29T16:57:12.784Z,27.47
2017-01-29T16:58:27.182Z,30.76
2017-01-29T16:59:41.557Z,31.49
2017-01-29T17:00:55.974Z,30.69
2017-01-29T17:02:10.422Z,29.72
2017-01-29T17:03:24.805Z,30.91
2017-01-29T17:04:39.213Z,34.3
2017-01-29T17:05:53.611Z,35.76
2017-01-29T17:07:07.974Z,36.2
2017-01-29T17:08:22.361Z,37.65
2017-01-29T17:09:36.743Z,37.85
2017-01-29T17:10:50.523Z,37.07
2017-01-29T17:12:04.271Z,36.88
2017-01-29T17:13:18.674Z,37.2
2017-01-29T17:14:33.108Z,34.17
2017-01-29T17:15:47.502Z,36.15
2017-01-29T17:17:01.903Z,37.67
2017-01-29T17:18:15.652Z,38.17
2017-01-29T17:19:30.058Z,38.05
2017-01-29T17:20:44.466Z,36.69